createdAt,value
2022-09-28T00:01:37.478Z,6.77
2022-09-28T00:06:39.411Z,7.30
2022-09-28T00:11:41.306Z,5.83
2022-09-28T00:16:46.899Z,5.40
2022-09-28T00:21:48.887Z,6.37
2022-09-28T00:27:01.812Z,6.47
2022-09-28T00:32:30.366Z,5.67
2022-09-28T00:37:32.491Z,8.67
2022-09-28T00:42:34.301Z,6.57
2022-09-28T00:47:52.038Z,3.37
2022-09-28T00:53:24.378Z,1.90
2022-09-28T00:58:35.794Z,4.60
2022-09-28T01:03:38.505Z,2.40
2022-09-28T01:08:40.594Z,2.53
2022-09-28T01:13:42.484Z,2.17
2022-09-28T01:18:49.918Z,2.60
2022-09-28T01:24:44.098Z,2.33
2022-09-28T01:30:07.214Z,1.50
2022-09-28T01:35:24.452Z,1.93
2022-09-28T01:40:27.998Z,3.30
2022-09-28T01:45:34.999Z,2.43
2022-09-28T01:50:40.059Z,1.93
2022-09-28T01:55:50.887Z,2.20
2022-09-28T02:00:57.902Z,3.63
2022-09-28T02:06:21.807Z,2.50
2022-09-28T02:11:23.635Z,2.90
2022-09-28T02:16:44.223Z,3.60
2022-09-28T02:21:59.937Z,3.77
2022-09-28T02:27:10.820Z,3.60
2022-09-28T02:32:13.741Z,3.77
2022-09-28T02:37:18.495Z,4.83
2022-09-28T02:42:59.665Z,4.90
2022-09-28T02:48:43.102Z,4.67
2022-09-28T02:54:05.500Z,5.87
2022-09-28T02:59:33.506Z,6.30
2022-09-28T03:04:53.896Z,7.23
2022-09-28T03:10:14.329Z,7.50
2022-09-28T03:15:34.542Z,9.07
2022-09-28T03:20:36.407Z,12.87
2022-09-28T03:25:38.143Z,9.77
2022-09-28T03:30:39.825Z,10.30
2022-09-28T03:35:41.618Z,9.63
2022-09-28T03:40:43.638Z,14.93
2022-09-28T03:45:55.532Z,14.97
2022-09-28T03:51:01.288Z,16.93
2022-09-28T03:56:07.198Z,15.43
2022-09-28T04:06:38.051Z,18.27
2022-09-28T04:12:02.353Z,18.27
2022-09-28T04:17:01.745Z,19.17
2022-09-28T04:22:04.858Z,18.83
2022-09-28T04:27:26.152Z,17.60
2022-09-28T04:32:27.900Z,16.33
2022-09-28T04:37:31.228Z,17.57
2022-09-28T04:42:33.198Z,15.67
2022-09-28T04:47:37.539Z,17.33
2022-09-28T04:52:39.628Z,18.97
2022-09-28T04:57:41.428Z,15.37
2022-09-28T05:02:43.169Z,17.70
2022-09-28T05:07:45.988Z,16.67
2022-09-28T05:12:47.741Z,20.13
2022-09-28T05:17:49.484Z,15.03
2022-09-28T05:22:51.345Z,17.50
2022-09-28T05:28:03.561Z,16.10
2022-09-28T05:33:09.446Z,19.77
2022-09-28T05:38:16.328Z,17.43
2022-09-28T05:43:18.455Z,16.80
2022-09-28T05:48:20.140Z,21.27
2022-09-28T05:53:22.042Z,16.67
2022-09-28T05:58:23.777Z,15.70
2022-09-28T06:08:46.325Z,19.50
2022-09-28T06:13:48.418Z,22.93
2022-09-28T06:19:14.492Z,16.97
2022-09-28T06:24:23.744Z,16.53
2022-09-28T06:29:30.497Z,17.27
2022-09-28T06:35:12.203Z,18.57
2022-09-28T06:40:24.307Z,18.10
2022-09-28T06:45:43.943Z,19.30
2022-09-28T06:51:20.301Z,17.73
2022-09-28T07:08:10.702Z,17.87
2022-09-28T07:13:49.946Z,18.10
2022-09-28T07:19:22.985Z,19.33
2022-09-28T07:24:47.641Z,18.67
2022-09-28T08:04:01.764Z,17.20
2022-09-28T08:15:40.407Z,15.90
2022-09-28T08:32:51.337Z,19.07
2022-09-28T08:37:55.639Z,27.30
2022-09-28T08:43:03.172Z,29.67
2022-09-28T08:48:34.037Z,15.33
2022-09-28T08:53:40.643Z,14.20
2022-09-28T08:58:45.220Z,15.23
2022-09-28T09:04:15.812Z,15.73
2022-09-28T09:10:01.533Z,15.67
2022-09-28T09:15:32.510Z,14.23
2022-09-28T09:20:41.306Z,16.67
2022-09-28T09:25:54.895Z,14.40
2022-09-28T09:31:22.872Z,12.70
2022-09-28T09:36:37.908Z,11.90
2022-09-28T09:41:53.348Z,14.10
2022-09-28T09:47:08.218Z,9.83
2022-09-28T09:52:39.905Z,11.93
2022-09-28T09:57:51.426Z,10.90
2022-09-28T10:03:07.287Z,10.70
2022-09-28T10:08:14.239Z,10.60
2022-09-28T10:13:16.284Z,8.80
2022-09-28T10:18:20.247Z,8.97
2022-09-28T10:23:25.981Z,10.13
2022-09-28T10:28:40.780Z,11.80
2022-09-28T10:33:42.536Z,9.97
2022-09-28T10:38:48.168Z,9.97
2022-09-28T10:43:51.280Z,8.40
2022-09-28T10:49:19.867Z,10.77
2022-09-28T10:54:26.263Z,11.00
2022-09-28T10:59:31.066Z,7.73
2022-09-28T11:04:42.273Z,7.27
2022-09-28T11:09:48.852Z,12.13
2022-09-28T11:14:58.633Z,9.27
2022-09-28T11:20:02.963Z,7.10
2022-09-28T11:25:21.953Z,7.80
2022-09-28T11:30:43.214Z,7.57
2022-09-28T11:35:53.800Z,9.93
2022-09-28T11:41:34.366Z,5.50
2022-09-28T11:46:35.987Z,7.00
2022-09-28T11:51:39.882Z,7.60
2022-09-28T11:56:48.045Z,5.03
2022-09-28T12:01:58.036Z,5.17
2022-09-28T12:07:19.659Z,5.73
2022-09-28T12:12:25.791Z,3.40
2022-09-28T12:17:35.653Z,5.00
2022-09-28T12:23:05.773Z,3.63
2022-09-28T12:28:17.619Z,2.80
2022-09-28T12:33:19.452Z,2.40
2022-09-28T12:38:54.073Z,3.40
2022-09-28T12:44:17.541Z,3.47
2022-09-28T12:55:26.074Z,2.50
2022-09-28T13:00:41.288Z,3.40
2022-09-28T13:06:05.447Z,5.60
2022-09-28T13:11:33.058Z,10.07
2022-09-28T13:16:41.573Z,10.87
2022-09-28T13:21:49.532Z,7.70
2022-09-28T13:26:51.616Z,9.20
2022-09-28T13:31:57.400Z,9.30
2022-09-28T13:37:16.087Z,8.93
2022-09-28T13:43:02.957Z,8.83
2022-09-28T13:48:15.384Z,10.47
2022-09-28T13:53:39.692Z,10.33
2022-09-28T13:58:48.065Z,9.67
2022-09-28T14:04:11.779Z,9.37
2022-09-28T14:09:16.490Z,10.73
2022-09-28T14:14:24.907Z,11.27
2022-09-28T14:19:35.423Z,10.13
2022-09-28T14:24:58.874Z,9.53
2022-09-28T14:30:13.008Z,7.87
2022-09-28T14:35:40.059Z,8.10
2022-09-28T14:41:09.768Z,8.53
2022-09-28T14:46:11.663Z,6.53
2022-09-28T14:51:42.552Z,5.90
2022-09-28T14:56:57.995Z,5.97
2022-09-28T15:02:06.419Z,10.90
2022-09-28T15:07:29.925Z,5.33
2022-09-28T15:12:44.076Z,7.53
2022-09-28T15:17:50.361Z,6.93
2022-09-28T15:23:03.488Z,11.03
2022-09-28T15:28:22.197Z,7.37
2022-09-28T15:33:44.500Z,11.17
2022-09-28T15:39:07.470Z,7.70
2022-09-28T15:44:33.123Z,7.03
2022-09-28T15:49:58.829Z,9.33
2022-09-28T15:55:02.305Z,8.83
2022-09-28T16:00:25.768Z,11.80
2022-09-28T16:05:46.770Z,9.90
2022-09-28T16:11:10.847Z,9.87
2022-09-28T16:16:15.828Z,10.83
2022-09-28T16:21:45.739Z,9.83
2022-09-28T16:26:49.186Z,16.33
2022-09-28T16:31:53.023Z,11.50
2022-09-28T16:36:54.818Z,11.07
2022-09-28T16:42:01.757Z,8.87
2022-09-28T16:47:03.728Z,10.13
2022-09-28T16:52:11.661Z,10.13
2022-09-28T16:57:13.879Z,12.70
2022-09-28T17:02:45.038Z,9.57
2022-09-28T17:07:43.732Z,8.20
2022-09-28T17:12:46.028Z,11.80
2022-09-28T17:17:48.747Z,11.90
2022-09-28T17:22:51.163Z,10.30
2022-09-28T17:27:55.724Z,9.17
2022-09-28T17:32:59.155Z,9.87
2022-09-28T17:38:01.850Z,9.03
2022-09-28T17:43:05.674Z,11.00
2022-09-28T17:48:12.449Z,9.70
2022-09-28T17:53:14.315Z,11.63
2022-09-28T17:58:20.662Z,13.97
2022-09-28T18:03:23.766Z,11.43
2022-09-28T18:08:25.480Z,10.27
2022-09-28T18:13:27.556Z,10.57
2022-09-28T18:18:29.360Z,10.23
2022-09-28T18:23:31.108Z,12.10
2022-09-28T18:28:32.833Z,10.50
2022-09-28T18:33:50.251Z,10.27
2022-09-28T18:44:40.322Z,11.23
2022-09-28T18:49:46.473Z,13.37
2022-09-28T18:54:50.721Z,11.07
2022-09-28T18:59:52.483Z,10.60
2022-09-28T19:04:54.237Z,10.20
2022-09-28T19:10:01.351Z,11.40
2022-09-28T19:15:03.414Z,12.17
2022-09-28T19:20:11.398Z,10.83
2022-09-28T19:25:14.772Z,13.90
2022-09-28T19:36:48.979Z,12.50
2022-09-28T19:41:54.255Z,14.67
2022-09-28T19:47:04.306Z,12.53
2022-09-28T19:52:13.745Z,12.60
2022-09-28T19:57:16.910Z,12.43
2022-09-28T20:02:18.987Z,12.97
2022-09-28T20:07:21.531Z,13.50
2022-09-28T20:12:23.367Z,14.07
2022-09-28T20:17:27.490Z,13.80
2022-09-28T20:22:30.822Z,15.80
2022-09-28T20:27:33.996Z,13.03
2022-09-28T20:32:35.834Z,20.93
2022-09-28T20:37:37.822Z,16.10
2022-09-28T20:42:39.599Z,15.57
2022-09-28T20:47:41.338Z,14.93
2022-09-28T20:52:43.049Z,14.23
2022-09-28T20:57:45.502Z,14.80
2022-09-28T21:02:51.791Z,15.10
2022-09-28T21:07:53.535Z,15.60
2022-09-28T21:12:55.228Z,16.83
2022-09-28T21:17:57.018Z,15.87
2022-09-28T21:22:58.747Z,15.23
2022-09-28T21:28:00.617Z,16.47
2022-09-28T21:33:02.345Z,15.03
2022-09-28T21:38:04.275Z,16.73
2022-09-28T21:43:05.930Z,14.77
2022-09-28T21:48:09.486Z,14.07
2022-09-28T21:53:11.164Z,14.70
2022-09-28T21:58:12.787Z,14.93
2022-09-28T22:03:17.202Z,11.60
2022-09-28T22:08:19.962Z,11.30
2022-09-28T22:13:22.488Z,11.63
2022-09-28T22:18:28.397Z,15.60
2022-09-28T22:23:30.568Z,12.23
2022-09-28T22:28:32.513Z,10.90
2022-09-28T22:33:34.309Z,12.30
2022-09-28T22:38:36.022Z,11.23
2022-09-28T22:43:38.101Z,9.77
2022-09-28T22:48:40.161Z,10.50
2022-09-28T22:53:42.360Z,11.70
2022-09-28T22:58:44.163Z,10.27
2022-09-28T23:03:46.165Z,9.77
2022-09-28T23:08:48.931Z,11.03
2022-09-28T23:13:54.833Z,13.40
2022-09-28T23:18:56.815Z,10.90
2022-09-28T23:24:01.619Z,10.70
2022-09-28T23:29:03.678Z,10.03
2022-09-28T23:34:06.545Z,11.40
2022-09-28T23:39:09.841Z,11.00
2022-09-28T23:44:11.606Z,9.80
2022-09-28T23:49:13.512Z,14.47
2022-09-28T23:54:16.008Z,12.70
2022-09-28T23:59:17.775Z,11.53
